Observation data for Memphis on 12/09/2018      Previous  Date       Current Mesonet Observations  Soil Data  Daily Summary Page  Observations in Plain Language
KMES 090600Z 32005KT M03/M10 A3033 RMK A01 T10341096  RH  062%=      5-min Rain = 0
KMES 090605Z 32004KT M03/M10 A3033 RMK A01 T10341096  RH  062%=      5-min Rain = 0
KMES 090610Z 32004KT M04/M10 A3033 RMK A01 T10411095  RH  066%=      5-min Rain = 0
KMES 090615Z 33005KT M05/M10 A3033 RMK A01 T10481095  RH  069%=      5-min Rain = 0
KMES 090620Z 34005KT M05/M09 A3033 RMK A01 T10511093  RH  072%=      5-min Rain = 0
KMES 090625Z 35005KT M05/M09 A3033 RMK A01 T10521093  RH  073%=      5-min Rain = 0
KMES 090630Z 36004KT M05/M09 A3033 RMK A01 T10541092  RH  074%=      5-min Rain = 0
KMES 090635Z 36005KT M05/M09 A3033 RMK A01 T10541090  RH  075%=      5-min Rain = 0
KMES 090640Z 36005KT M05/M09 A3033 RMK A01 T10521089  RH  075%=      5-min Rain = 0
KMES 090645Z 00005KT M05/M09 A3033 RMK A01 T10491090  RH  073%=      5-min Rain = 0
KMES 090650Z 35004KT M05/M09 A3033 RMK A01 T10491091  RH  073%=      5-min Rain = 0
KMES 090655Z 33003KT M05/M09 A3033 RMK A01 T10461090  RH  071%=      5-min Rain = 0
KMES 090700Z 32003KT M04/M09 A3033 RMK A01 T10441091  RH  070%=      5-min Rain = 0
KMES 090705Z 32003KT M04/M09 A3033 RMK A01 T10431092  RH  069%=      5-min Rain = 0
KMES 090710Z 32003KT M04/M09 A3033 RMK A01 T10441092  RH  069%=      5-min Rain = 0
KMES 090715Z 32004KT M04/M09 A3033 RMK A01 T10441093  RH  069%=      5-min Rain = 0
KMES 090720Z 32005KT M04/M09 A3033 RMK A01 T10421093  RH  068%=      5-min Rain = 0
KMES 090725Z 33005KT M04/M09 A3033 RMK A01 T10421093  RH  067%=      5-min Rain = 0
KMES 090730Z 34005KT M05/M09 A3032 RMK A01 T10471094  RH  070%=      5-min Rain = 0
KMES 090735Z 33003KT M05/M09 A3032 RMK A01 T10511093  RH  072%=      5-min Rain = 0
KMES 090740Z 29002KT M05/M09 A3032 RMK A01 T10491091  RH  072%=      5-min Rain = 0
KMES 090745Z 29002KT M05/M09 A3032 RMK A01 T10471092  RH  071%=      5-min Rain = 0
KMES 090750Z 27002KT M04/M09 A3032 RMK A01 T10441093  RH  068%=      5-min Rain = 0
KMES 090755Z 28002KT M04/M09 A3032 RMK A01 T10441094  RH  068%=      5-min Rain = 0
KMES 090800Z 29002KT M04/M10 A3032 RMK A01 T10421095  RH  067%=      5-min Rain = 0
KMES 090805Z 27002KT M04/M10 A3032 RMK A01 T10401096  RH  065%=      5-min Rain = 0
KMES 090810Z 25003KT M04/M10 A3032 RMK A01 T10421095  RH  066%=      5-min Rain = 0
KMES 090815Z 27003KT M04/M09 A3033 RMK A01 T10431092  RH  069%=      5-min Rain = 0
KMES 090820Z 26004KT M04/M09 A3033 RMK A01 T10401093  RH  066%=      5-min Rain = 0
KMES 090825Z 25004KT M04/M09 A3033 RMK A01 T10391094  RH  065%=      5-min Rain = 0
KMES 090830Z 27003KT M04/M09 A3033 RMK A01 T10401094  RH  066%=      5-min Rain = 0
KMES 090835Z 26003KT M04/M09 A3033 RMK A01 T10411094  RH  067%=      5-min Rain = 0
KMES 090840Z 26004KT M04/M09 A3033 RMK A01 T10431094  RH  067%=      5-min Rain = 0
KMES 090845Z 29003KT M05/M09 A3033 RMK A01 T10451094  RH  068%=      5-min Rain = 0
KMES 090850Z 29004KT M05/M09 A3033 RMK A01 T10451094  RH  068%=      5-min Rain = 0
KMES 090855Z 29003KT M05/M09 A3033 RMK A01 T10451094  RH  069%=      5-min Rain = 0
KMES 090900Z 29004KT M05/M09 A3033 RMK A01 T10481093  RH  070%=      5-min Rain = 0
KMES 090905Z 29004KT M05/M09 A3034 RMK A01 T10481092  RH  071%=      5-min Rain = 0
KMES 090910Z 29004KT M05/M09 A3034 RMK A01 T10471093  RH  070%=      5-min Rain = 0
KMES 090915Z 29004KT M05/M09 A3034 RMK A01 T10481094  RH  070%=      5-min Rain = 0
KMES 090920Z 30004KT M05/M09 A3034 RMK A01 T10491094  RH  070%=      5-min Rain = 0
KMES 090925Z 32004KT M05/M09 A3034 RMK A01 T10481094  RH  070%=      5-min Rain = 0
KMES 090930Z 32003KT M05/M10 A3034 RMK A01 T10521095  RH  072%=      5-min Rain = 0
KMES 090935Z 33003KT M06/M09 A3033 RMK A01 T10561094  RH  074%=      5-min Rain = 0
KMES 090940Z 33003KT M06/M10 A3033 RMK A01 T10591095  RH  075%=      5-min Rain = 0
KMES 090945Z 32004KT M06/M09 A3033 RMK A01 T10601094  RH  077%=      5-min Rain = 0
KMES 090950Z 33005KT M06/M09 A3033 RMK A01 T10591092  RH  077%=      5-min Rain = 0
KMES 090955Z 32005KT M06/M09 A3033 RMK A01 T10571091  RH  077%=      5-min Rain = 0
KMES 091000Z 32005KT M05/M09 A3033 RMK A01 T10541091  RH  075%=      5-min Rain = 0
KMES 091005Z 32005KT M05/M09 A3033 RMK A01 T10541091  RH  075%=      5-min Rain = 0
KMES 091010Z 32004KT M05/M09 A3033 RMK A01 T10541092  RH  075%=      5-min Rain = 0
KMES 091015Z 32004KT M06/M09 A3033 RMK A01 T10551091  RH  075%=      5-min Rain = 0
KMES 091020Z 33005KT M06/M09 A3033 RMK A01 T10561092  RH  076%=      5-min Rain = 0
KMES 091025Z 33004KT M06/M09 A3033 RMK A01 T10571092  RH  076%=      5-min Rain = 0
KMES 091030Z 33004KT M06/M09 A3033 RMK A01 T10601093  RH  077%=      5-min Rain = 0
KMES 091035Z 33004KT M06/M09 A3033 RMK A01 T10621093  RH  078%=      5-min Rain = 0
KMES 091040Z 33004KT M06/M09 A3033 RMK A01 T10631093  RH  079%=      5-min Rain = 0
KMES 091045Z 33004KT M06/M09 A3033 RMK A01 T10631092  RH  080%=      5-min Rain = 0
KMES 091050Z 33005KT M06/M09 A3033 RMK A01 T10641092  RH  080%=      5-min Rain = 0
KMES 091055Z 33005KT M07/M09 A3033 RMK A01 T10651091  RH  082%=      5-min Rain = 0
KMES 091100Z 33005KT M06/M09 A3033 RMK A01 T10631089  RH  081%=      5-min Rain = 0
KMES 091105Z 33005KT M06/M09 A3033 RMK A01 T10621090  RH  081%=      5-min Rain = 0
KMES 091110Z 33005KT M06/M09 A3033 RMK A01 T10601088  RH  080%=      5-min Rain = 0
KMES 091115Z 33006KT M06/M09 A3033 RMK A01 T10571088  RH  079%=      5-min Rain = 0
KMES 091120Z 33005KT M06/M09 A3033 RMK A01 T10551088  RH  078%=      5-min Rain = 0
KMES 091125Z 34005KT M06/M09 A3033 RMK A01 T10551088  RH  078%=      5-min Rain = 0
KMES 091130Z 33005KT M05/M09 A3033 RMK A01 T10541087  RH  078%=      5-min Rain = 0
KMES 091135Z 32005KT M05/M09 A3033 RMK A01 T10521087  RH  076%=      5-min Rain = 0
KMES 091140Z 32005KT M05/M09 A3034 RMK A01 T10491087  RH  074%=      5-min Rain = 0
KMES 091145Z 32005KT M05/M09 A3034 RMK A01 T10481088  RH  073%=      5-min Rain = 0
KMES 091150Z 32006KT M05/M09 A3034 RMK A01 T10481088  RH  073%=      5-min Rain = 0
KMES 091155Z 33006KT M05/M09 A3034 RMK A01 T10471089  RH  072%=      5-min Rain = 0
KMES 091200Z 33005KT M05/M09 A3034 RMK A01 T10471089  RH  072%=      5-min Rain = 0
KMES 091205Z 33005KT M05/M09 A3034 RMK A01 T10481089  RH  073%=      5-min Rain = 0
KMES 091210Z 32005KT M05/M09 A3034 RMK A01 T10491089  RH  073%=      5-min Rain = 0
KMES 091215Z 32005KT M05/M09 A3034 RMK A01 T10491089  RH  073%=      5-min Rain = 0
KMES 091220Z 32004KT M05/M09 A3034 RMK A01 T10481089  RH  073%=      5-min Rain = 0
KMES 091225Z 32005KT M05/M09 A3034 RMK A01 T10471089  RH  072%=      5-min Rain = 0
KMES 091230Z 32006KT M04/M09 A3035 RMK A01 T10431090  RH  070%=      5-min Rain = 0
KMES 091235Z 33006KT M04/M09 A3035 RMK A01 T10441090  RH  070%=      5-min Rain = 0
KMES 091240Z 33006KT M05/M09 A3035 RMK A01 T10461090  RH  071%=      5-min Rain = 0
KMES 091245Z 32005KT M05/M09 A3035 RMK A01 T10481091  RH  072%=      5-min Rain = 0
KMES 091250Z 32005KT M05/M09 A3035 RMK A01 T10481091  RH  072%=      5-min Rain = 0
KMES 091255Z 32005KT M05/M09 A3035 RMK A01 T10491091  RH  072%=      5-min Rain = 0
KMES 091300Z 31004KT M05/M09 A3036 RMK A01 T10481091  RH  071%=      5-min Rain = 0
KMES 091305Z 30001KT M05/M09 A3036 RMK A01 T10491093  RH  071%=      5-min Rain = 0
KMES 091310Z 30001KT M05/M09 A3036 RMK A01 T10511094  RH  072%=      5-min Rain = 0
KMES 091315Z 29001KT M05/M09 A3036 RMK A01 T10521093  RH  072%=      5-min Rain = 0
KMES 091320Z 29001KT M05/M09 A3036 RMK A01 T10521094  RH  072%=      5-min Rain = 0
KMES 091325Z 30002KT M05/M09 A3036 RMK A01 T10531094  RH  072%=      5-min Rain = 0
KMES 091330Z 29002KT M05/M09 A3036 RMK A01 T10531094  RH  072%=      5-min Rain = 0
KMES 091335Z 29002KT M05/M10 A3036 RMK A01 T10531095  RH  072%=      5-min Rain = 0
KMES 091340Z 29003KT M05/M10 A3037 RMK A01 T10531095  RH  072%=      5-min Rain = 0
KMES 091345Z 30004KT M05/M09 A3037 RMK A01 T10521094  RH  072%=      5-min Rain = 0
KMES 091350Z 30003KT M05/M09 A3037 RMK A01 T10501094  RH  072%=      5-min Rain = 0
KMES 091355Z 31002KT M05/M09 A3037 RMK A01 T10491092  RH  072%=      5-min Rain = 0
KMES 091400Z 32003KT M05/M09 A3037 RMK A01 T10471090  RH  072%=      5-min Rain = 0
KMES 091405Z 32004KT M05/M09 A3037 RMK A01 T10451088  RH  071%=      5-min Rain = 0
KMES 091410Z 31003KT M04/M09 A3037 RMK A01 T10411089  RH  069%=      5-min Rain = 0
KMES 091415Z 30003KT M04/M09 A3038 RMK A01 T10381089  RH  068%=      5-min Rain = 0
KMES 091420Z 31003KT M04/M09 A3038 RMK A01 T10371089  RH  067%=      5-min Rain = 0
KMES 091425Z 32003KT M04/M09 A3038 RMK A01 T10361088  RH  067%=      5-min Rain = 0
KMES 091430Z 32002KT M04/M09 A3038 RMK A01 T10351086  RH  068%=      5-min Rain = 0
KMES 091435Z 32002KT M04/M09 A3038 RMK A01 T10351085  RH  068%=      5-min Rain = 0
KMES 091440Z 32003KT M03/M08 A3038 RMK A01 T10341084  RH  068%=      5-min Rain = 0
KMES 091445Z 33003KT M03/M08 A3038 RMK A01 T10341082  RH  069%=      5-min Rain = 0
KMES 091450Z 33004KT M03/M08 A3038 RMK A01 T10321078  RH  071%=      5-min Rain = 0
KMES 091455Z 32004KT M03/M08 A3039 RMK A01 T10261075  RH  069%=      5-min Rain = 0
KMES 091500Z 31003KT M02/M08 A3039 RMK A01 T10221075  RH  067%=      5-min Rain = 0
KMES 091505Z 28002KT M02/M07 A3039 RMK A01 T10171074  RH  065%=      5-min Rain = 0
KMES 091510Z 25002KT M01/M07 A3039 RMK A01 T10141073  RH  064%=      5-min Rain = 0
KMES 091515Z 25002KT M01/M08 A304 RMK A01 T10111075  RH  062%=      5-min Rain = 0
KMES 091520Z 24002KT M01/M07 A304 RMK A01 T10071074  RH  060%=      5-min Rain = 0
KMES 091525Z 23002KT M00/M07 A304 RMK A01 T10021072  RH  059%=      5-min Rain = 0
KMES 091530Z 24002KT 00/M07 A304 RMK A01 T00031072  RH  057%=      5-min Rain = 0
KMES 091535Z 25002KT 01/M07 A304 RMK A01 T00081073  RH  055%=      5-min Rain = 0
KMES 091540Z 24002KT 01/M07 A304 RMK A01 T00141072  RH  053%=      5-min Rain = 0
KMES 091545Z 27002KT 02/M07 A304 RMK A01 T00201073  RH  050%=      5-min Rain = 0
KMES 091550Z 27002KT 03/M08 A304 RMK A01 T00261078  RH  046%=      5-min Rain = 0
KMES 091555Z 27002KT 03/M08 A3041 RMK A01 T00301079  RH  044%=      5-min Rain = 0
KMES 091600Z 25001KT 04/M08 A3041 RMK A01 T00361079  RH  043%=      5-min Rain = 0
KMES 091605Z 33002KT 04/M08 A3041 RMK A01 T00441084  RH  039%=      5-min Rain = 0
KMES 091610Z 34006KT 05/M11 A3041 RMK A01 T00471107  RH  032%=      5-min Rain = 0
KMES 091615Z 34006KT 05/M11 A3041 RMK A01 T00471106  RH  032%=      5-min Rain = 0
KMES 091620Z 35005KT 05/M11 A3041 RMK A01 T00491106  RH  031%=      5-min Rain = 0
KMES 091625Z 33006KT 05/M10 A3041 RMK A01 T00521102  RH  032%=      5-min Rain = 0
KMES 091630Z 34007KT 05/M10 A3041 RMK A01 T00531104  RH  031%=      5-min Rain = 0
KMES 091635Z 35006KT 05/M10 A304 RMK A01 T00531103  RH  031%=      5-min Rain = 0
KMES 091640Z 34006KT 06/M11 A304 RMK A01 T00551105  RH  030%=      5-min Rain = 0
KMES 091645Z 35006KT 06/M11 A304 RMK A01 T00551107  RH  030%=      5-min Rain = 0
KMES 091650Z 33004KT 06/M11 A304 RMK A01 T00551106  RH  030%=      5-min Rain = 0
KMES 091655Z 35006KT 06/M10 A304 RMK A01 T00581102  RH  030%=      5-min Rain = 0
KMES 091700Z 35003KT 06/M10 A304 RMK A01 T00591103  RH  030%=      5-min Rain = 0
KMES 091705Z 02003G8KT 06/M10 A304 RMK A01 T00611100  RH  030%=      5-min Rain = 0
KMES 091710Z 04005KT 06/M10 A304 RMK A01 T00631100  RH  030%=      5-min Rain = 0
KMES 091715Z 01005KT 06/M10 A304 RMK A01 T00641097  RH  030%=      5-min Rain = 0
KMES 091720Z 01006KT 07/M10 A304 RMK A01 T00671098  RH  030%=      5-min Rain = 0
KMES 091725Z 04003KT 07/M10 A3039 RMK A01 T00681101  RH  029%=      5-min Rain = 0
KMES 091730Z 02004G9KT 07/M10 A3039 RMK A01 T00691099  RH  029%=      5-min Rain = 0
KMES 091735Z 06006KT 07/M11 A3039 RMK A01 T00701105  RH  028%=      5-min Rain = 0
KMES 091740Z 03003KT 07/M10 A3039 RMK A01 T00701103  RH  028%=      5-min Rain = 0
KMES 091745Z 03005KT 07/M10 A3039 RMK A01 T00721100  RH  028%=      5-min Rain = 0
KMES 091750Z 04004KT 07/M10 A3039 RMK A01 T00721103  RH  027%=      5-min Rain = 0
KMES 091755Z 36003KT 07/M10 A3039 RMK A01 T00721102  RH  028%=      5-min Rain = 0
KMES 091800Z 03005KT 07/M10 A3038 RMK A01 T00731098  RH  028%=      5-min Rain = 0
KMES 091805Z 04001KT 08/M10 A3038 RMK A01 T00761097  RH  028%=      5-min Rain = 0
KMES 091810Z 05003KT 08/M10 A3038 RMK A01 T00811103  RH  026%=      5-min Rain = 0
KMES 091815Z 01004KT 08/M11 A3038 RMK A01 T00791108  RH  025%=      5-min Rain = 0
KMES 091820Z 05005KT 08/M11 A3038 RMK A01 T00791105  RH  026%=      5-min Rain = 0
KMES 091825Z 02003KT 08/M11 A3037 RMK A01 T00781110  RH  025%=      5-min Rain = 0
KMES 091830Z 04004KT 08/M11 A3037 RMK A01 T00791110  RH  025%=      5-min Rain = 0
KMES 091835Z 03004KT 08/M11 A3036 RMK A01 T00811113  RH  024%=      5-min Rain = 0
KMES 091840Z 35005KT 08/M12 A3036 RMK A01 T00821117  RH  023%=      5-min Rain = 0
KMES 091845Z 36004KT 08/M11 A3036 RMK A01 T00821112  RH  024%=      5-min Rain = 0
KMES 091850Z 31002KT 08/M11 A3036 RMK A01 T00821109  RH  024%=      5-min Rain = 0
KMES 091855Z 25001KT 09/M11 A3035 RMK A01 T00851108  RH  024%=      5-min Rain = 0
KMES 091900Z 07003KT 09/M11 A3035 RMK A01 T00891112  RH  023%=      5-min Rain = 0
KMES 091905Z 07001KT 09/M12 A3035 RMK A01 T00891118  RH  022%=      5-min Rain = 0
KMES 091910Z 13003KT 09/M13 A3035 RMK A01 T00881125  RH  021%=      5-min Rain = 0
KMES 091915Z 05002KT 09/M13 A3034 RMK A01 T00881125  RH  021%=      5-min Rain = 0
KMES 091920Z 02003KT 09/M12 A3034 RMK A01 T00901122  RH  021%=      5-min Rain = 0
KMES 091925Z 05003KT 09/M12 A3034 RMK A01 T00901124  RH  021%=      5-min Rain = 0
KMES 091930Z 13002KT 09/M12 A3034 RMK A01 T00921119  RH  021%=      5-min Rain = 0
KMES 091935Z 14002KT 10/M12 A3034 RMK A01 T00971119  RH  020%=      5-min Rain = 0
KMES 091940Z 06001KT 10/M12 A3034 RMK A01 T00951119  RH  021%=      5-min Rain = 0
KMES 091945Z 12003KT 10/M12 A3034 RMK A01 T00971116  RH  021%=      5-min Rain = 0
KMES 091950Z 12003KT 10/M12 A3034 RMK A01 T00971117  RH  021%=      5-min Rain = 0
KMES 091955Z 12004KT 10/M12 A3034 RMK A01 T00971116  RH  021%=      5-min Rain = 0
KMES 092000Z 11003KT 10/M12 A3033 RMK A01 T00991115  RH  021%=      5-min Rain = 0
KMES 092005Z 06003KT 10/M12 A3033 RMK A01 T00991117  RH  021%=      5-min Rain = 0
KMES 092010Z 13002KT 10/M12 A3033 RMK A01 T00981119  RH  020%=      5-min Rain = 0
KMES 092015Z 21002KT 10/M12 A3033 RMK A01 T00971119  RH  020%=      5-min Rain = 0
KMES 092020Z 23001KT 10/M11 A3033 RMK A01 T01001114  RH  021%=      5-min Rain = 0
KMES 092025Z 03000KT 11/M11 A3033 RMK A01 T01061111  RH  020%=      5-min Rain = 0
KMES 092030Z 06004KT 11/M11 A3033 RMK A01 T01051112  RH  020%=      5-min Rain = 0
KMES 092035Z 36001KT 10/M11 A3033 RMK A01 T01021114  RH  020%=      5-min Rain = 0
KMES 092040Z 28002KT 10/M11 A3032 RMK A01 T01031109  RH  021%=      5-min Rain = 0
KMES 092045Z 26001KT 11/M11 A3032 RMK A01 T01061111  RH  020%=      5-min Rain = 0
KMES 092050Z 29002KT 11/M11 A3032 RMK A01 T01071111  RH  020%=      5-min Rain = 0
KMES 092055Z 32001KT 10/M11 A3032 RMK A01 T01021111  RH  021%=      5-min Rain = 0
KMES 092100Z 26001KT 10/M11 A3032 RMK A01 T01031111  RH  021%=      5-min Rain = 0
KMES 092105Z 32002KT 11/M11 A3032 RMK A01 T01051110  RH  021%=      5-min Rain = 0
KMES 092110Z 22003KT 11/M11 A3032 RMK A01 T01061107  RH  021%=      5-min Rain = 0
KMES 092115Z 25004KT 11/M11 A3032 RMK A01 T01051107  RH  021%=      5-min Rain = 0
KMES 092120Z 23003KT 11/M11 A3032 RMK A01 T01061107  RH  021%=      5-min Rain = 0
KMES 092125Z 20002KT 11/M11 A3032 RMK A01 T01071106  RH  021%=      5-min Rain = 0
KMES 092130Z 21001KT 11/M11 A3032 RMK A01 T01111106  RH  021%=      5-min Rain = 0
KMES 092135Z 10001KT 11/M11 A3032 RMK A01 T01121106  RH  020%=      5-min Rain = 0
KMES 092140Z 19004KT 11/M11 A3032 RMK A01 T01091105  RH  021%=      5-min Rain = 0
KMES 092145Z 19003KT 11/M11 A3032 RMK A01 T01071106  RH  021%=      5-min Rain = 0
KMES 092150Z 17004KT 11/M10 A3032 RMK A01 T01101103  RH  021%=      5-min Rain = 0
KMES 092155Z 18003KT 11/M10 A3032 RMK A01 T01111102  RH  021%=      5-min Rain = 0
KMES 092200Z 18003KT 11/M10 A3032 RMK A01 T01111102  RH  021%=      5-min Rain = 0
KMES 092205Z 18003KT 11/M10 A3032 RMK A01 T01101103  RH  021%=      5-min Rain = 0
KMES 092210Z 16002KT 11/M10 A3032 RMK A01 T01111102  RH  021%=      5-min Rain = 0
KMES 092215Z 24006KT 11/M10 A3032 RMK A01 T01111099  RH  022%=      5-min Rain = 0
KMES 092220Z 23005KT 11/M10 A3032 RMK A01 T01081099  RH  022%=      5-min Rain = 0
KMES 092225Z 21004KT 11/M10 A3032 RMK A01 T01061102  RH  022%=      5-min Rain = 0
KMES 092230Z 22007KT 11/M09 A3032 RMK A01 T01051094  RH  024%=      5-min Rain = 0
KMES 092235Z 23009KT 10/M09 A3032 RMK A01 T01001085  RH  026%=      5-min Rain = 0
KMES 092240Z 22008KT 10/M08 A3032 RMK A01 T00971082  RH  027%=      5-min Rain = 0
KMES 092245Z 22007KT 10/M08 A3032 RMK A01 T00951082  RH  028%=      5-min Rain = 0
KMES 092250Z 23006KT 09/M08 A3033 RMK A01 T00941083  RH  028%=      5-min Rain = 0
KMES 092255Z 22006KT 09/M08 A3033 RMK A01 T00941084  RH  028%=      5-min Rain = 0
KMES 092300Z 23006KT 09/M08 A3033 RMK A01 T00921082  RH  028%=      5-min Rain = 0
KMES 092305Z 23004KT 09/M08 A3033 RMK A01 T00911078  RH  030%=      5-min Rain = 0
KMES 092310Z 23004KT 09/M08 A3033 RMK A01 T00891075  RH  030%=      5-min Rain = 0
KMES 092315Z 22003KT 09/M07 A3033 RMK A01 T00871073  RH  031%=      5-min Rain = 0
KMES 092320Z 21003KT 09/M07 A3033 RMK A01 T00861074  RH  032%=      5-min Rain = 0
KMES 092325Z 21003KT 09/M07 A3033 RMK A01 T00851074  RH  032%=      5-min Rain = 0
KMES 092330Z 21002KT 08/M07 A3033 RMK A01 T00821074  RH  032%=      5-min Rain = 0
KMES 092335Z 19000KT 08/M07 A3033 RMK A01 T00801074  RH  033%=      5-min Rain = 0
KMES 092340Z 18000KT 08/M08 A3033 RMK A01 T00761075  RH  033%=      5-min Rain = 0
KMES 092345Z 18001KT 07/M07 A3033 RMK A01 T00731074  RH  034%=      5-min Rain = 0
KMES 092350Z 19001KT 07/M07 A3033 RMK A01 T00701072  RH  036%=      5-min Rain = 0
KMES 092355Z 17002KT 07/M07 A3033 RMK A01 T00671072  RH  036%=      5-min Rain = 0
KMES 100000Z 17002KT 06/M07 A3033 RMK A01 T00621071  RH  038%=      5-min Rain = 0
KMES 100005Z 16003KT 06/M07 A3033 RMK A01 T00571072  RH  039%=      5-min Rain = 0
KMES 100010Z 16002KT 06/M07 A3033 RMK A01 T00561071  RH  040%=      5-min Rain = 0
KMES 100015Z 16002KT 05/M07 A3033 RMK A01 T00531070  RH  041%=      5-min Rain = 0
KMES 100020Z 16001KT 05/M07 A3034 RMK A01 T00471072  RH  042%=      5-min Rain = 0
KMES 100025Z 00000KT 04/M07 A3034 RMK A01 T00411071  RH  044%=      5-min Rain = 0
KMES 100030Z 00000KT 04/M07 A3034 RMK A01 T00401067  RH  045%=      5-min Rain = 0
KMES 100035Z 00000KT 04/M07 A3035 RMK A01 T00401066  RH  046%=      5-min Rain = 0
KMES 100040Z 00000KT 04/M06 A3035 RMK A01 T00371062  RH  048%=      5-min Rain = 0
KMES 100045Z 00000KT 04/M06 A3035 RMK A01 T00351062  RH  049%=      5-min Rain = 0
KMES 100050Z 32000KT 03/M06 A3035 RMK A01 T00321061  RH  051%=      5-min Rain = 0
KMES 100055Z 32001KT 03/M06 A3035 RMK A01 T00251064  RH  052%=      5-min Rain = 0
KMES 100100Z 32002KT 02/M06 A3035 RMK A01 T00211064  RH  053%=      5-min Rain = 0
KMES 100105Z 32003KT 02/M06 A3035 RMK A01 T00201061  RH  055%=      5-min Rain = 0
KMES 100110Z 31003KT 02/M07 A3036 RMK A01 T00211065  RH  053%=      5-min Rain = 0
KMES 100115Z 30004KT 02/M07 A3035 RMK A01 T00211067  RH  052%=      5-min Rain = 0
KMES 100120Z 31003KT 02/M07 A3035 RMK A01 T00191066  RH  053%=      5-min Rain = 0
KMES 100125Z 31002KT 02/M07 A3035 RMK A01 T00171065  RH  055%=      5-min Rain = 0
KMES 100130Z 30002KT 01/M07 A3035 RMK A01 T00131066  RH  056%=      5-min Rain = 0
KMES 100135Z 29002KT 01/M07 A3035 RMK A01 T00091065  RH  058%=      5-min Rain = 0
KMES 100140Z 29000KT 01/M07 A3035 RMK A01 T00071065  RH  059%=      5-min Rain = 0
KMES 100145Z 28001KT 01/M06 A3035 RMK A01 T00051064  RH  060%=      5-min Rain = 0
KMES 100150Z 28001KT 00/M06 A3035 RMK A01 T00041063  RH  061%=      5-min Rain = 0
KMES 100155Z 29001KT 00/M07 A3035 RMK A01 T00021066  RH  060%=      5-min Rain = 0
KMES 100200Z 31002KT M01/M07 A3035 RMK A01 T10071071  RH  062%=      5-min Rain = 0
KMES 100205Z 30004KT M02/M07 A3036 RMK A01 T10171073  RH  066%=      5-min Rain = 0
KMES 100210Z 30005KT M01/M06 A3036 RMK A01 T10091062  RH  067%=      5-min Rain = 0
KMES 100215Z 30004KT 00/M06 A3036 RMK A01 T00011063  RH  062%=      5-min Rain = 0
KMES 100220Z 30003KT 00/06 A3036 RMK A01 T00000-64  RH  062%=      5-min Rain = 0
KMES 100225Z 30004KT 00/06 A3036 RMK A01 T00-00-62  RH  063%=      5-min Rain = 0
KMES 100230Z 31003KT M00/M06 A3036 RMK A01 T10011063  RH  063%=      5-min Rain = 0
KMES 100235Z 30004KT M00/M06 A3036 RMK A01 T10041064  RH  064%=      5-min Rain = 0
KMES 100240Z 30006KT 00/06 A3036 RMK A01 T00000-60  RH  064%=      5-min Rain = 0
KMES 100245Z 30006KT 01/M06 A3036 RMK A01 T00051059  RH  062%=      5-min Rain = 0
KMES 100250Z 30004KT 01/M06 A3036 RMK A01 T00071059  RH  061%=      5-min Rain = 0
KMES 100255Z 29003KT 01/M06 A3036 RMK A01 T00051060  RH  062%=      5-min Rain = 0
KMES 100300Z 28002KT 00/M06 A3036 RMK A01 T00041061  RH  062%=      5-min Rain = 0
KMES 100305Z 28001KT 00/M06 A3036 RMK A01 T00021060  RH  063%=      5-min Rain = 0
KMES 100310Z 27000KT 00/06 A3036 RMK A01 T00-00-60  RH  064%=      5-min Rain = 0
KMES 100315Z 27000KT M01/M06 A3036 RMK A01 T10051063  RH  065%=      5-min Rain = 0
KMES 100320Z 28000KT M01/M07 A3036 RMK A01 T10101065  RH  066%=      5-min Rain = 0
KMES 100325Z 00000KT M02/M07 A3036 RMK A01 T10151065  RH  068%=      5-min Rain = 0
KMES 100330Z 00000KT M02/M06 A3035 RMK A01 T10181064  RH  071%=      5-min Rain = 0
KMES 100335Z 00000KT M02/M06 A3035 RMK A01 T10201063  RH  072%=      5-min Rain = 0
KMES 100340Z 00000KT M02/M06 A3036 RMK A01 T10211063  RH  073%=      5-min Rain = 0
KMES 100345Z 00000KT M02/M06 A3036 RMK A01 T10211063  RH  073%=      5-min Rain = 0
KMES 100350Z 00000KT M02/M06 A3035 RMK A01 T10211062  RH  073%=      5-min Rain = 0
KMES 100355Z 00000KT M02/M06 A3035 RMK A01 T10231063  RH  074%=      5-min Rain = 0
KMES 100400Z 00000KT M02/M06 A3035 RMK A01 T10221060  RH  076%=      5-min Rain = 0
KMES 100405Z 00000KT M02/M06 A3035 RMK A01 T10221060  RH  076%=      5-min Rain = 0
KMES 100410Z 00000KT M02/M06 A3035 RMK A01 T10211057  RH  076%=      5-min Rain = 0
KMES 100415Z 00000KT M03/M06 A3036 RMK A01 T10251063  RH  075%=      5-min Rain = 0
KMES 100420Z 31001KT M03/M07 A3036 RMK A01 T10301065  RH  077%=      5-min Rain = 0
KMES 100425Z 27003KT M03/M06 A3036 RMK A01 T10281061  RH  078%=      5-min Rain = 0
KMES 100430Z 26003KT M02/M05 A3036 RMK A01 T10201052  RH  079%=      5-min Rain = 0
KMES 100435Z 25002KT M02/M06 A3036 RMK A01 T10201056  RH  076%=      5-min Rain = 0
KMES 100440Z 23003KT M02/M05 A3036 RMK A01 T10191054  RH  077%=      5-min Rain = 0
KMES 100445Z 21003KT M02/M05 A3035 RMK A01 T10181053  RH  077%=      5-min Rain = 0
KMES 100450Z 22003KT M02/M06 A3035 RMK A01 T10201057  RH  076%=      5-min Rain = 0
KMES 100455Z 22001KT M02/M06 A3035 RMK A01 T10211058  RH  076%=      5-min Rain = 0
KMES 100500Z 00000KT M03/M06 A3035 RMK A01 T10271064  RH  076%=      5-min Rain = 0
KMES 100505Z 01000KT M04/M07 A3036 RMK A01 T10361070  RH  077%=      5-min Rain = 0
KMES 100510Z 00000KT M04/M07 A3036 RMK A01 T10381069  RH  079%=      5-min Rain = 0
KMES 100515Z 00000KT M03/M06 A3036 RMK A01 T10341062  RH  081%=      5-min Rain = 0
KMES 100520Z 00000KT M03/M06 A3036 RMK A01 T10291057  RH  081%=      5-min Rain = 0
KMES 100525Z 33000KT M03/M06 A3036 RMK A01 T10331062  RH  080%=      5-min Rain = 0
KMES 100530Z 00000KT M03/M06 A3036 RMK A01 T10321059  RH  082%=      5-min Rain = 0
KMES 100535Z 32000KT M03/M06 A3036 RMK A01 T10291055  RH  083%=      5-min Rain = 0
KMES 100540Z 32001KT M02/M05 A3036 RMK A01 T10221048  RH  083%=      5-min Rain = 0
KMES 100545Z 00000KT M02/M05 A3036 RMK A01 T10221054  RH  079%=      5-min Rain = 0
KMES 100550Z 00000KT M03/M05 A3035 RMK A01 T10251054  RH  081%=      5-min Rain = 0
KMES 100555Z 29000KT M02/M05 A3035 RMK A01 T10171046  RH  081%=      5-min Rain = 0

Page generated in 0.0093 seconds.